sensor_id;sensor_type;location;lat;lon;timestamp;pressure;altitude;pressure_sealevel;temperature;humidity
33151;BME280;19508;42.578;23.416;2023-08-07T00:00:21;93144.94;;;18.41;70.77
33151;BME280;19508;42.578;23.416;2023-08-07T00:02:47;93147.00;;;18.35;70.26
33151;BME280;19508;42.578;23.416;2023-08-07T00:05:13;93144.75;;;18.37;70.42
33151;BME280;19508;42.578;23.416;2023-08-07T00:07:38;93143.44;;;18.17;71.52
33151;BME280;19508;42.578;23.416;2023-08-07T00:10:04;93140.09;;;18.20;71.37
33151;BME280;19508;42.578;23.416;2023-08-07T00:12:29;93145.00;;;18.10;71.38
33151;BME280;19508;42.578;23.416;2023-08-07T00:14:55;93145.81;;;18.10;71.65
33151;BME280;19508;42.578;23.416;2023-08-07T00:17:20;93142.59;;;18.08;71.71
33151;BME280;19508;42.578;23.416;2023-08-07T00:19:46;93148.50;;;18.01;71.81
33151;BME280;19508;42.578;23.416;2023-08-07T00:22:11;93149.25;;;17.85;72.25
33151;BME280;19508;42.578;23.416;2023-08-07T00:24:36;93144.56;;;17.76;72.64
33151;BME280;19508;42.578;23.416;2023-08-07T00:27:02;93143.69;;;17.67;73.78
33151;BME280;19508;42.578;23.416;2023-08-07T00:29:28;93138.56;;;17.66;73.46
33151;BME280;19508;42.578;23.416;2023-08-07T00:31:53;93152.00;;;17.62;73.89
33151;BME280;19508;42.578;23.416;2023-08-07T00:34:18;93155.22;;;17.64;73.53
33151;BME280;19508;42.578;23.416;2023-08-07T00:36:44;93161.75;;;17.55;74.34
33151;BME280;19508;42.578;23.416;2023-08-07T00:39:09;93167.13;;;17.46;74.91
33151;BME280;19508;42.578;23.416;2023-08-07T00:41:35;93182.06;;;17.26;76.28
33151;BME280;19508;42.578;23.416;2023-08-07T00:44:00;93183.41;;;17.37;75.57
33151;BME280;19508;42.578;23.416;2023-08-07T00:46:26;93177.44;;;17.27;75.92
33151;BME280;19508;42.578;23.416;2023-08-07T00:48:53;93185.44;;;17.32;75.91
33151;BME280;19508;42.578;23.416;2023-08-07T00:51:20;93184.97;;;17.30;76.02
33151;BME280;19508;42.578;23.416;2023-08-07T00:53:46;93188.44;;;17.22;76.00
33151;BME280;19508;42.578;23.416;2023-08-07T00:56:12;93188.53;;;17.16;76.24
33151;BME280;19508;42.578;23.416;2023-08-07T00:58:38;93192.75;;;17.00;77.09
33151;BME280;19508;42.578;23.416;2023-08-07T01:01:04;93199.91;;;16.96;77.12
33151;BME280;19508;42.578;23.416;2023-08-07T01:03:30;93193.13;;;16.85;77.62
33151;BME280;19508;42.578;23.416;2023-08-07T01:05:55;93202.56;;;16.87;78.26
33151;BME280;19508;42.578;23.416;2023-08-07T01:08:21;93207.59;;;16.94;77.69
33151;BME280;19508;42.578;23.416;2023-08-07T01:17:00;93208.00;;;16.87;77.58
33151;BME280;19508;42.578;23.416;2023-08-07T01:19:25;93210.22;;;16.85;77.82
33151;BME280;19508;42.578;23.416;2023-08-07T01:22:14;93204.47;;;16.87;77.72
33151;BME280;19508;42.578;23.416;2023-08-07T01:24:41;93205.69;;;16.81;77.80
33151;BME280;19508;42.578;23.416;2023-08-07T01:32:57;93216.25;;;16.82;77.86
33151;BME280;19508;42.578;23.416;2023-08-07T01:35:29;93216.00;;;16.70;78.18
33151;BME280;19508;42.578;23.416;2023-08-07T01:37:58;93215.09;;;16.61;78.19
33151;BME280;19508;42.578;23.416;2023-08-07T01:40:25;93208.84;;;16.60;78.30
33151;BME280;19508;42.578;23.416;2023-08-07T01:42:52;93206.13;;;16.60;77.80
33151;BME280;19508;42.578;23.416;2023-08-07T01:45:25;93208.63;;;16.57;78.24
33151;BME280;19508;42.578;23.416;2023-08-07T01:47:50;93196.97;;;16.56;77.89
33151;BME280;19508;42.578;23.416;2023-08-07T01:50:17;93202.94;;;16.58;77.83
33151;BME280;19508;42.578;23.416;2023-08-07T01:52:43;93202.22;;;16.39;78.22
33151;BME280;19508;42.578;23.416;2023-08-07T01:55:08;93204.94;;;16.39;78.58
33151;BME280;19508;42.578;23.416;2023-08-07T01:57:34;93216.63;;;16.40;78.73
33151;BME280;19508;42.578;23.416;2023-08-07T01:59:59;93212.59;;;16.37;78.67
33151;BME280;19508;42.578;23.416;2023-08-07T02:02:24;93216.53;;;16.31;78.99
33151;BME280;19508;42.578;23.416;2023-08-07T02:04:50;93230.50;;;16.38;78.70
33151;BME280;19508;42.578;23.416;2023-08-07T02:07:15;93221.88;;;16.22;79.18
33151;BME280;19508;42.578;23.416;2023-08-07T02:09:40;93219.59;;;16.16;79.43
33151;BME280;19508;42.578;23.416;2023-08-07T02:12:06;93224.00;;;16.12;80.06
33151;BME280;19508;42.578;23.416;2023-08-07T02:14:31;93219.47;;;16.21;80.04
33151;BME280;19508;42.578;23.416;2023-08-07T02:16:57;93225.38;;;16.23;79.45
33151;BME280;19508;42.578;23.416;2023-08-07T02:19:22;93224.69;;;16.17;79.39
33151;BME280;19508;42.578;23.416;2023-08-07T02:21:47;93214.25;;;16.11;79.74
33151;BME280;19508;42.578;23.416;2023-08-07T02:24:13;93224.59;;;16.08;79.56
33151;BME280;19508;42.578;23.416;2023-08-07T02:26:39;93232.44;;;16.10;79.17
33151;BME280;19508;42.578;23.416;2023-08-07T02:29:04;93226.28;;;16.04;79.45
33151;BME280;19508;42.578;23.416;2023-08-07T02:31:31;93229.63;;;16.01;79.75
33151;BME280;19508;42.578;23.416;2023-08-07T02:33:57;93244.09;;;15.97;79.67
33151;BME280;19508;42.578;23.416;2023-08-07T02:36:22;93241.19;;;15.93;80.09
33151;BME280;19508;42.578;23.416;2023-08-07T02:38:48;93244.88;;;15.97;80.33
33151;BME280;19508;42.578;23.416;2023-08-07T02:41:13;93246.91;;;16.05;80.14
33151;BME280;19508;42.578;23.416;2023-08-07T02:43:38;93236.25;;;15.95;79.91
33151;BME280;19508;42.578;23.416;2023-08-07T02:46:04;93230.31;;;15.93;79.89
33151;BME280;19508;42.578;23.416;2023-08-07T02:48:29;93241.97;;;15.94;80.41
33151;BME280;19508;42.578;23.416;2023-08-07T02:50:54;93245.19;;;15.82;80.28
33151;BME280;19508;42.578;23.416;2023-08-07T02:53:20;93238.56;;;15.74;79.65
33151;BME280;19508;42.578;23.416;2023-08-07T02:55:46;93240.66;;;15.77;80.10
33151;BME280;19508;42.578;23.416;2023-08-07T02:58:11;93255.22;;;15.68;80.96
33151;BME280;19508;42.578;23.416;2023-08-07T03:00:36;93253.50;;;15.72;82.29
33151;BME280;19508;42.578;23.416;2023-08-07T03:03:02;93255.13;;;15.73;83.41
33151;BME280;19508;42.578;23.416;2023-08-07T03:05:27;93265.38;;;15.76;83.32
33151;BME280;19508;42.578;23.416;2023-08-07T03:07:53;93250.72;;;15.77;83.07
33151;BME280;19508;42.578;23.416;2023-08-07T03:10:18;93268.03;;;15.81;83.17
33151;BME280;19508;42.578;23.416;2023-08-07T03:12:44;93256.56;;;15.84;82.93
33151;BME280;19508;42.578;23.416;2023-08-07T03:15:10;93269.44;;;15.92;82.92
33151;BME280;19508;42.578;23.416;2023-08-07T03:17:35;93271.81;;;15.80;84.99
33151;BME280;19508;42.578;23.416;2023-08-07T03:20:00;93270.63;;;15.86;83.82
33151;BME280;19508;42.578;23.416;2023-08-07T03:22:26;93280.50;;;15.96;84.91
33151;BME280;19508;42.578;23.416;2023-08-07T03:24:51;93276.66;;;15.97;85.49
33151;BME280;19508;42.578;23.416;2023-08-07T03:27:17;93279.72;;;16.09;84.86
33151;BME280;19508;42.578;23.416;2023-08-07T03:29:42;93284.44;;;16.17;83.79
33151;BME280;19508;42.578;23.416;2023-08-07T03:32:08;93283.25;;;16.37;83.04
33151;BME280;19508;42.578;23.416;2023-08-07T03:34:34;93287.06;;;16.36;83.54
33151;BME280;19508;42.578;23.416;2023-08-07T03:37:00;93294.44;;;16.49;82.72
33151;BME280;19508;42.578;23.416;2023-08-07T03:39:25;93289.97;;;16.53;82.68
33151;BME280;19508;42.578;23.416;2023-08-07T03:41:50;93296.81;;;16.37;83.99
33151;BME280;19508;42.578;23.416;2023-08-07T03:44:16;93298.03;;;16.31;84.25
33151;BME280;19508;42.578;23.416;2023-08-07T03:46:41;93302.25;;;16.37;84.06
33151;BME280;19508;42.578;23.416;2023-08-07T03:49:07;93295.81;;;16.47;83.74
33151;BME280;19508;42.578;23.416;2023-08-07T03:51:32;93307.69;;;16.64;83.27
33151;BME280;19508;42.578;23.416;2023-08-07T03:53:58;93306.69;;;16.74;83.26
33151;BME280;19508;42.578;23.416;2023-08-07T03:56:23;93307.41;;;16.80;81.94
33151;BME280;19508;42.578;23.416;2023-08-07T03:58:48;93306.88;;;16.91;81.40
33151;BME280;19508;42.578;23.416;2023-08-07T04:01:15;93319.16;;;17.03;80.62
33151;BME280;19508;42.578;23.416;2023-08-07T04:03:41;93317.31;;;17.12;80.75
33151;BME280;19508;42.578;23.416;2023-08-07T04:06:06;93322.63;;;17.17;80.05
33151;BME280;19508;42.578;23.416;2023-08-07T04:08:32;93316.66;;;17.29;78.80
33151;BME280;19508;42.578;23.416;2023-08-07T04:11:02;93318.97;;;17.35;79.23
33151;BME280;19508;42.578;23.416;2023-08-07T04:13:28;93331.22;;;17.46;78.51
33151;BME280;19508;42.578;23.416;2023-08-07T04:15:57;93339.19;;;17.43;79.50
33151;BME280;19508;42.578;23.416;2023-08-07T04:18:23;93332.91;;;17.56;77.52
33151;BME280;19508;42.578;23.416;2023-08-07T04:20:53;93328.50;;;17.46;77.89
33151;BME280;19508;42.578;23.416;2023-08-07T04:23:19;93338.59;;;17.46;78.69
33151;BME280;19508;42.578;23.416;2023-08-07T04:25:46;93341.16;;;17.51;79.73
33151;BME280;19508;42.578;23.416;2023-08-07T04:28:12;93345.16;;;17.67;78.66
33151;BME280;19508;42.578;23.416;2023-08-07T04:30:38;93341.31;;;17.68;78.62
33151;BME280;19508;42.578;23.416;2023-08-07T04:33:03;93341.72;;;17.75;78.64
33151;BME280;19508;42.578;23.416;2023-08-07T04:35:30;93347.16;;;17.75;78.42
33151;BME280;19508;42.578;23.416;2023-08-07T04:37:55;93343.22;;;17.82;77.63
33151;BME280;19508;42.578;23.416;2023-08-07T04:40:21;93346.25;;;17.66;77.33
33151;BME280;19508;42.578;23.416;2023-08-07T04:42:48;93341.59;;;17.81;77.32
33151;BME280;19508;42.578;23.416;2023-08-07T04:45:14;93336.53;;;17.88;77.00
33151;BME280;19508;42.578;23.416;2023-08-07T04:47:40;93338.56;;;18.04;76.53
33151;BME280;19508;42.578;23.416;2023-08-07T04:50:06;93343.44;;;18.16;76.51
33151;BME280;19508;42.578;23.416;2023-08-07T04:52:32;93348.47;;;18.00;75.88
33151;BME280;19508;42.578;23.416;2023-08-07T04:54:57;93348.50;;;18.09;75.41
33151;BME280;19508;42.578;23.416;2023-08-07T04:57:23;93351.59;;;18.16;75.49
33151;BME280;19508;42.578;23.416;2023-08-07T04:59:51;93351.75;;;17.89;76.78
33151;BME280;19508;42.578;23.416;2023-08-07T05:02:16;93349.00;;;18.11;75.99
33151;BME280;19508;42.578;23.416;2023-08-07T05:04:42;93350.13;;;18.10;74.95
33151;BME280;19508;42.578;23.416;2023-08-07T05:07:07;93346.19;;;17.71;75.14
33151;BME280;19508;42.578;23.416;2023-08-07T05:09:33;93342.22;;;18.00;75.53
33151;BME280;19508;42.578;23.416;2023-08-07T05:11:58;93350.88;;;18.02;75.81
33151;BME280;19508;42.578;23.416;2023-08-07T05:14:24;93350.00;;;18.15;74.91
33151;BME280;19508;42.578;23.416;2023-08-07T05:16:49;93335.44;;;18.20;73.46
33151;BME280;19508;42.578;23.416;2023-08-07T05:19:14;93343.06;;;18.09;71.18
33151;BME280;19508;42.578;23.416;2023-08-07T05:21:40;93340.44;;;17.95;73.26
33151;BME280;19508;42.578;23.416;2023-08-07T05:24:05;93335.44;;;18.20;71.94
33151;BME280;19508;42.578;23.416;2023-08-07T05:26:31;93320.03;;;18.15;71.73
33151;BME280;19508;42.578;23.416;2023-08-07T05:28:56;93322.28;;;18.13;71.96
33151;BME280;19508;42.578;23.416;2023-08-07T05:31:24;93335.44;;;18.20;71.67
33151;BME280;19508;42.578;23.416;2023-08-07T05:33:49;93331.13;;;18.27;71.19
33151;BME280;19508;42.578;23.416;2023-08-07T05:36:14;93330.25;;;18.41;71.08
33151;BME280;19508;42.578;23.416;2023-08-07T05:38:40;93332.69;;;18.82;69.74
33151;BME280;19508;42.578;23.416;2023-08-07T05:41:05;93332.00;;;18.68;67.74
33151;BME280;19508;42.578;23.416;2023-08-07T05:43:31;93335.78;;;18.89;68.64
33151;BME280;19508;42.578;23.416;2023-08-07T05:45:57;93342.06;;;19.07;68.75
33151;BME280;19508;42.578;23.416;2023-08-07T05:48:22;93343.81;;;19.03;68.66
33151;BME280;19508;42.578;23.416;2023-08-07T05:50:48;93337.41;;;19.07;68.05
33151;BME280;19508;42.578;23.416;2023-08-07T05:53:13;93346.44;;;19.16;67.52
33151;BME280;19508;42.578;23.416;2023-08-07T05:55:41;93344.97;;;19.19;67.00
33151;BME280;19508;42.578;23.416;2023-08-07T05:58:07;93349.81;;;19.39;67.22
33151;BME280;19508;42.578;23.416;2023-08-07T06:00:33;93357.06;;;19.35;66.78
33151;BME280;19508;42.578;23.416;2023-08-07T06:03:00;93345.81;;;19.45;66.67
33151;BME280;19508;42.578;23.416;2023-08-07T06:05:26;93346.31;;;19.99;65.69
33151;BME280;19508;42.578;23.416;2023-08-07T06:07:51;93340.91;;;20.93;62.72
33151;BME280;19508;42.578;23.416;2023-08-07T06:10:23;93343.59;;;21.40;60.01
33151;BME280;19508;42.578;23.416;2023-08-07T06:12:48;93336.38;;;22.19;60.61
33151;BME280;19508;42.578;23.416;2023-08-07T06:15:14;93347.88;;;22.45;55.63
33151;BME280;19508;42.578;23.416;2023-08-07T06:17:39;93324.69;;;23.00;55.36
33151;BME280;19508;42.578;23.416;2023-08-07T06:20:07;93329.34;;;23.36;52.80
33151;BME280;19508;42.578;23.416;2023-08-07T06:22:34;93333.66;;;23.74;51.34
33151;BME280;19508;42.578;23.416;2023-08-07T06:25:00;93327.50;;;24.33;49.96
33151;BME280;19508;42.578;23.416;2023-08-07T06:27:26;93316.69;;;24.40;49.92
33151;BME280;19508;42.578;23.416;2023-08-07T06:29:51;93306.53;;;24.72;47.45
33151;BME280;19508;42.578;23.416;2023-08-07T06:32:16;93307.34;;;24.89;45.49
33151;BME280;19508;42.578;23.416;2023-08-07T06:34:43;93306.28;;;24.62;46.25
33151;BME280;19508;42.578;23.416;2023-08-07T06:37:09;93318.44;;;24.92;47.55
33151;BME280;19508;42.578;23.416;2023-08-07T06:39:34;93314.19;;;25.11;45.87
33151;BME280;19508;42.578;23.416;2023-08-07T06:42:00;93324.81;;;25.95;44.40
33151;BME280;19508;42.578;23.416;2023-08-07T06:44:26;93326.19;;;25.85;44.98
33151;BME280;19508;42.578;23.416;2023-08-07T06:46:51;93325.44;;;26.65;43.50
33151;BME280;19508;42.578;23.416;2023-08-07T06:49:17;93323.16;;;27.36;42.89
33151;BME280;19508;42.578;23.416;2023-08-07T06:51:43;93331.06;;;27.38;39.53
33151;BME280;19508;42.578;23.416;2023-08-07T06:54:08;93316.03;;;27.88;41.67
33151;BME280;19508;42.578;23.416;2023-08-07T06:56:33;93318.47;;;27.17;39.95
33151;BME280;19508;42.578;23.416;2023-08-07T06:58:59;93327.38;;;27.07;39.79
33151;BME280;19508;42.578;23.416;2023-08-07T07:01:25;93324.78;;;27.41;39.29
33151;BME280;19508;42.578;23.416;2023-08-07T07:03:50;93325.00;;;26.63;41.54
33151;BME280;19508;42.578;23.416;2023-08-07T07:06:20;93320.97;;;27.49;39.30
33151;BME280;19508;42.578;23.416;2023-08-07T07:08:46;93324.16;;;27.51;38.44
33151;BME280;19508;42.578;23.416;2023-08-07T07:11:11;93326.06;;;27.70;37.38
33151;BME280;19508;42.578;23.416;2023-08-07T07:13:37;93333.72;;;27.57;38.28
33151;BME280;19508;42.578;23.416;2023-08-07T07:16:02;93325.56;;;26.73;38.68
33151;BME280;19508;42.578;23.416;2023-08-07T07:18:28;93310.81;;;27.07;40.19
33151;BME280;19508;42.578;23.416;2023-08-07T07:20:57;93312.78;;;27.30;40.56
33151;BME280;19508;42.578;23.416;2023-08-07T07:23:24;93304.69;;;26.52;41.64
33151;BME280;19508;42.578;23.416;2023-08-07T07:25:49;93312.31;;;26.20;42.13
33151;BME280;19508;42.578;23.416;2023-08-07T07:28:14;93313.25;;;26.28;41.83
33151;BME280;19508;42.578;23.416;2023-08-07T07:30:40;93320.94;;;26.77;40.25
33151;BME280;19508;42.578;23.416;2023-08-07T07:33:05;93318.06;;;26.50;40.47
33151;BME280;19508;42.578;23.416;2023-08-07T07:35:30;93318.66;;;26.01;40.90
33151;BME280;19508;42.578;23.416;2023-08-07T07:37:56;93315.38;;;26.15;41.92
33151;BME280;19508;42.578;23.416;2023-08-07T07:40:21;93306.59;;;26.09;41.48
33151;BME280;19508;42.578;23.416;2023-08-07T07:42:47;93320.97;;;26.19;40.34
33151;BME280;19508;42.578;23.416;2023-08-07T07:45:12;93322.13;;;26.37;39.99
33151;BME280;19508;42.578;23.416;2023-08-07T07:47:38;93321.84;;;25.68;39.92
33151;BME280;19508;42.578;23.416;2023-08-07T07:50:05;93322.19;;;26.40;39.36
33151;BME280;19508;42.578;23.416;2023-08-07T07:52:32;93321.97;;;26.30;39.53
33151;BME280;19508;42.578;23.416;2023-08-07T07:54:57;93320.38;;;26.67;38.81
33151;BME280;19508;42.578;23.416;2023-08-07T07:57:23;93318.69;;;26.05;39.13
33151;BME280;19508;42.578;23.416;2023-08-07T07:59:48;93314.13;;;25.93;39.77
33151;BME280;19508;42.578;23.416;2023-08-07T08:02:14;93323.75;;;26.38;38.28
33151;BME280;19508;42.578;23.416;2023-08-07T08:04:41;93313.25;;;26.66;37.06
33151;BME280;19508;42.578;23.416;2023-08-07T08:07:07;93310.06;;;26.45;38.54
33151;BME280;19508;42.578;23.416;2023-08-07T08:09:32;93303.47;;;26.73;38.18
33151;BME280;19508;42.578;23.416;2023-08-07T08:11:57;93305.63;;;26.83;36.83
33151;BME280;19508;42.578;23.416;2023-08-07T08:14:23;93300.22;;;26.90;39.99
33151;BME280;19508;42.578;23.416;2023-08-07T08:16:48;93298.38;;;26.75;37.83
33151;BME280;19508;42.578;23.416;2023-08-07T08:19:15;93290.78;;;26.91;38.80
33151;BME280;19508;42.578;23.416;2023-08-07T08:21:42;93292.66;;;27.06;37.29
33151;BME280;19508;42.578;23.416;2023-08-07T08:24:07;93295.38;;;27.29;39.79
33151;BME280;19508;42.578;23.416;2023-08-07T08:26:32;93297.66;;;27.50;38.44
33151;BME280;19508;42.578;23.416;2023-08-07T08:28:58;93303.81;;;27.13;40.01
33151;BME280;19508;42.578;23.416;2023-08-07T08:31:23;93297.22;;;27.71;37.40
33151;BME280;19508;42.578;23.416;2023-08-07T08:33:49;93295.38;;;27.78;37.60
33151;BME280;19508;42.578;23.416;2023-08-07T08:36:15;93291.94;;;27.09;37.20
33151;BME280;19508;42.578;23.416;2023-08-07T08:38:40;93284.59;;;27.20;38.30
33151;BME280;19508;42.578;23.416;2023-08-07T08:41:07;93278.13;;;27.36;38.50
33151;BME280;19508;42.578;23.416;2023-08-07T08:43:35;93283.66;;;27.36;38.56
33151;BME280;19508;42.578;23.416;2023-08-07T08:46:07;93284.16;;;26.95;39.49
33151;BME280;19508;42.578;23.416;2023-08-07T08:48:38;93275.88;;;27.18;37.06
33151;BME280;19508;42.578;23.416;2023-08-07T08:51:04;93278.06;;;27.32;37.16
33151;BME280;19508;42.578;23.416;2023-08-07T08:53:32;93276.84;;;27.56;39.86
33151;BME280;19508;42.578;23.416;2023-08-07T08:55:57;93278.53;;;27.38;36.81
33151;BME280;19508;42.578;23.416;2023-08-07T08:58:23;93275.63;;;27.27;36.49
33151;BME280;19508;42.578;23.416;2023-08-07T09:00:49;93274.31;;;27.44;37.17
33151;BME280;19508;42.578;23.416;2023-08-07T09:03:17;93264.50;;;27.50;36.55
33151;BME280;19508;42.578;23.416;2023-08-07T09:05:43;93268.31;;;27.15;36.07
33151;BME280;19508;42.578;23.416;2023-08-07T09:08:10;93262.56;;;27.01;36.54
33151;BME280;19508;42.578;23.416;2023-08-07T09:10:36;93270.19;;;27.34;37.58
33151;BME280;19508;42.578;23.416;2023-08-07T09:13:04;93264.31;;;27.66;35.56
33151;BME280;19508;42.578;23.416;2023-08-07T09:15:33;93263.75;;;27.79;35.66
33151;BME280;19508;42.578;23.416;2023-08-07T09:17:59;93256.53;;;28.01;37.06
33151;BME280;19508;42.578;23.416;2023-08-07T09:20:26;93255.09;;;28.15;34.89
33151;BME280;19508;42.578;23.416;2023-08-07T09:22:51;93252.34;;;28.15;38.35
33151;BME280;19508;42.578;23.416;2023-08-07T09:25:30;93255.41;;;28.06;35.66
33151;BME280;19508;42.578;23.416;2023-08-07T09:27:56;93269.72;;;27.81;34.62
33151;BME280;19508;42.578;23.416;2023-08-07T09:30:26;93268.75;;;28.30;34.80
33151;BME280;19508;42.578;23.416;2023-08-07T09:32:53;93264.44;;;27.69;38.64
33151;BME280;19508;42.578;23.416;2023-08-07T09:35:21;93263.72;;;28.09;35.30
33151;BME280;19508;42.578;23.416;2023-08-07T09:37:46;93255.38;;;28.36;35.47
33151;BME280;19508;42.578;23.416;2023-08-07T09:40:12;93256.53;;;28.35;35.88
33151;BME280;19508;42.578;23.416;2023-08-07T09:42:40;93242.75;;;28.05;33.90
33151;BME280;19508;42.578;23.416;2023-08-07T09:45:19;93246.41;;;28.13;34.80
33151;BME280;19508;42.578;23.416;2023-08-07T09:47:44;93247.41;;;28.01;34.37
33151;BME280;19508;42.578;23.416;2023-08-07T09:50:15;93241.75;;;28.20;34.15
33151;BME280;19508;42.578;23.416;2023-08-07T09:52:46;93243.56;;;28.09;36.21
33151;BME280;19508;42.578;23.416;2023-08-07T09:55:11;93245.63;;;28.16;35.39
33151;BME280;19508;42.578;23.416;2023-08-07T09:57:38;93252.25;;;28.37;34.98
33151;BME280;19508;42.578;23.416;2023-08-07T10:00:08;93267.25;;;28.77;35.17
33151;BME280;19508;42.578;23.416;2023-08-07T10:02:37;93257.50;;;28.50;34.17
33151;BME280;19508;42.578;23.416;2023-08-07T10:05:04;93245.44;;;28.31;33.79
33151;BME280;19508;42.578;23.416;2023-08-07T10:07:31;93247.06;;;28.36;37.26
33151;BME280;19508;42.578;23.416;2023-08-07T10:10:00;93259.66;;;28.71;36.10
33151;BME280;19508;42.578;23.416;2023-08-07T10:12:27;93252.88;;;28.27;33.19
33151;BME280;19508;42.578;23.416;2023-08-07T10:14:53;93255.75;;;28.34;35.20
33151;BME280;19508;42.578;23.416;2023-08-07T10:17:24;93251.81;;;29.17;33.91
33151;BME280;19508;42.578;23.416;2023-08-07T10:19:50;93246.69;;;28.78;34.93
33151;BME280;19508;42.578;23.416;2023-08-07T10:22:17;93247.78;;;29.11;33.70
33151;BME280;19508;42.578;23.416;2023-08-07T10:24:43;93244.34;;;29.28;32.45
33151;BME280;19508;42.578;23.416;2023-08-07T10:27:15;93245.97;;;28.85;33.48
33151;BME280;19508;42.578;23.416;2023-08-07T10:29:42;93233.28;;;28.80;33.93
33151;BME280;19508;42.578;23.416;2023-08-07T10:32:10;93235.56;;;29.15;33.33
33151;BME280;19508;42.578;23.416;2023-08-07T10:34:38;93245.22;;;29.39;31.58
33151;BME280;19508;42.578;23.416;2023-08-07T10:37:07;93243.47;;;29.72;32.88
33151;BME280;19508;42.578;23.416;2023-08-07T10:39:33;93249.06;;;29.79;33.44
33151;BME280;19508;42.578;23.416;2023-08-07T10:41:59;93242.50;;;29.43;34.79
33151;BME280;19508;42.578;23.416;2023-08-07T10:44:29;93239.94;;;29.20;34.40
33151;BME280;19508;42.578;23.416;2023-08-07T10:46:56;93243.41;;;29.58;35.74
33151;BME280;19508;42.578;23.416;2023-08-07T10:49:40;93234.47;;;29.31;32.74
33151;BME280;19508;42.578;23.416;2023-08-07T10:52:13;93234.47;;;29.27;33.02
33151;BME280;19508;42.578;23.416;2023-08-07T10:54:44;93230.84;;;29.78;32.63
33151;BME280;19508;42.578;23.416;2023-08-07T10:57:14;93234.94;;;29.40;33.75
33151;BME280;19508;42.578;23.416;2023-08-07T11:02:24;93225.34;;;29.30;33.98
33151;BME280;19508;42.578;23.416;2023-08-07T11:04:52;93225.19;;;29.64;33.00
33151;BME280;19508;42.578;23.416;2023-08-07T11:07:28;93226.81;;;29.72;31.39
33151;BME280;19508;42.578;23.416;2023-08-07T11:09:55;93219.16;;;30.17;32.12
33151;BME280;19508;42.578;23.416;2023-08-07T11:12:20;93215.19;;;30.18;31.44
33151;BME280;19508;42.578;23.416;2023-08-07T11:14:46;93204.06;;;30.11;30.70
33151;BME280;19508;42.578;23.416;2023-08-07T11:17:12;93215.41;;;29.84;31.10
33151;BME280;19508;42.578;23.416;2023-08-07T11:19:38;93207.00;;;29.70;32.72
33151;BME280;19508;42.578;23.416;2023-08-07T11:22:04;93199.88;;;29.69;31.88
33151;BME280;19508;42.578;23.416;2023-08-07T11:24:29;93201.28;;;30.21;32.82
33151;BME280;19508;42.578;23.416;2023-08-07T11:26:56;93194.44;;;29.97;30.92
33151;BME280;19508;42.578;23.416;2023-08-07T11:29:22;93196.91;;;30.10;31.04
33151;BME280;19508;42.578;23.416;2023-08-07T11:31:51;93186.50;;;29.99;30.61
33151;BME280;19508;42.578;23.416;2023-08-07T11:34:20;93183.47;;;30.33;31.18
33151;BME280;19508;42.578;23.416;2023-08-07T11:36:46;93178.28;;;30.14;33.05
33151;BME280;19508;42.578;23.416;2023-08-07T11:39:14;93182.56;;;30.04;34.12
33151;BME280;19508;42.578;23.416;2023-08-07T11:41:39;93177.81;;;30.04;34.36
33151;BME280;19508;42.578;23.416;2023-08-07T11:44:07;93166.84;;;30.47;32.62
33151;BME280;19508;42.578;23.416;2023-08-07T11:46:33;93165.31;;;30.71;32.08
33151;BME280;19508;42.578;23.416;2023-08-07T11:48:59;93174.81;;;30.84;31.66
33151;BME280;19508;42.578;23.416;2023-08-07T11:51:24;93173.16;;;30.30;31.21
33151;BME280;19508;42.578;23.416;2023-08-07T11:53:50;93177.75;;;29.83;31.27
33151;BME280;19508;42.578;23.416;2023-08-07T11:56:15;93177.13;;;30.29;30.77
33151;BME280;19508;42.578;23.416;2023-08-07T11:58:46;93173.22;;;30.62;30.71
33151;BME280;19508;42.578;23.416;2023-08-07T12:01:14;93174.38;;;30.57;31.03
33151;BME280;19508;42.578;23.416;2023-08-07T12:06:30;93165.31;;;30.96;32.76
33151;BME280;19508;42.578;23.416;2023-08-07T12:08:57;93168.38;;;30.23;30.65
33151;BME280;19508;42.578;23.416;2023-08-07T12:11:23;93165.13;;;30.07;30.42
33151;BME280;19508;42.578;23.416;2023-08-07T12:13:49;93159.66;;;30.18;30.42
33151;BME280;19508;42.578;23.416;2023-08-07T12:16:16;93159.47;;;29.68;32.06
33151;BME280;19508;42.578;23.416;2023-08-07T12:18:46;93159.28;;;30.33;31.40
33151;BME280;19508;42.578;23.416;2023-08-07T12:21:13;93160.44;;;30.22;31.90
33151;BME280;19508;42.578;23.416;2023-08-07T12:23:39;93154.53;;;30.34;31.07
33151;BME280;19508;42.578;23.416;2023-08-07T12:26:06;93159.25;;;29.32;32.67
33151;BME280;19508;42.578;23.416;2023-08-07T12:28:34;93152.34;;;29.81;31.62
33151;BME280;19508;42.578;23.416;2023-08-07T12:30:59;93148.19;;;30.26;31.48
33151;BME280;19508;42.578;23.416;2023-08-07T12:33:25;93140.69;;;30.98;31.39
33151;BME280;19508;42.578;23.416;2023-08-07T12:35:51;93146.63;;;31.29;31.15
33151;BME280;19508;42.578;23.416;2023-08-07T12:38:16;93150.28;;;32.20;29.22
33151;BME280;19508;42.578;23.416;2023-08-07T12:40:42;93150.06;;;32.60;27.38
33151;BME280;19508;42.578;23.416;2023-08-07T12:43:08;93149.94;;;32.77;28.81
33151;BME280;19508;42.578;23.416;2023-08-07T12:45:33;93148.72;;;32.82;28.74
33151;BME280;19508;42.578;23.416;2023-08-07T12:48:00;93141.09;;;33.34;27.25
33151;BME280;19508;42.578;23.416;2023-08-07T12:50:25;93148.69;;;33.72;26.64
33151;BME280;19508;42.578;23.416;2023-08-07T12:52:51;93149.03;;;34.69;26.46
33151;BME280;19508;42.578;23.416;2023-08-07T12:55:16;93148.75;;;35.14;24.57
33151;BME280;19508;42.578;23.416;2023-08-07T12:57:43;93157.13;;;34.02;26.41
33151;BME280;19508;42.578;23.416;2023-08-07T13:00:09;93153.84;;;33.32;26.38
33151;BME280;19508;42.578;23.416;2023-08-07T13:02:39;93162.22;;;32.17;29.22